createdAt,value
2023-02-04T00:07:18.431Z,15.87
2023-02-04T00:17:19.975Z,15.86
2023-02-04T00:27:21.368Z,15.83
2023-02-04T00:37:22.836Z,15.82
2023-02-04T00:47:24.226Z,15.79
2023-02-04T00:57:25.615Z,15.80
2023-02-04T01:07:27.070Z,15.76
2023-02-04T01:17:28.451Z,15.72
2023-02-04T01:27:29.901Z,15.73
2023-02-04T01:37:31.292Z,15.70
2023-02-04T01:47:33.011Z,15.70
2023-02-04T01:57:34.490Z,15.66
2023-02-04T02:07:35.873Z,15.64
2023-02-04T02:17:37.415Z,15.63
2023-02-04T02:27:38.930Z,15.67
2023-02-04T02:37:40.344Z,15.86
2023-02-04T02:47:41.871Z,16.11
2023-02-04T02:57:45.425Z,16.33
2023-02-04T03:07:46.945Z,16.50
2023-02-04T03:17:48.520Z,16.63
2023-02-04T03:27:51.526Z,16.78
2023-02-04T03:37:53.009Z,16.89
2023-02-04T03:47:54.520Z,16.94
2023-02-04T03:57:55.938Z,16.87
2023-02-04T04:07:57.939Z,16.85
2023-02-04T04:17:59.505Z,16.77
2023-02-04T04:28:01.104Z,16.64
2023-02-04T04:38:03.277Z,16.50
2023-02-04T04:48:04.981Z,16.47
2023-02-04T04:58:07.000Z,16.42
2023-02-04T05:08:12.956Z,16.44
2023-02-04T05:18:14.327Z,16.57
2023-02-04T05:28:15.769Z,16.73
2023-02-04T05:38:17.194Z,16.89
2023-02-04T05:48:18.639Z,17.05
2023-02-04T05:58:20.016Z,17.15
2023-02-04T06:08:21.406Z,17.21
2023-02-04T06:18:22.800Z,17.23
2023-02-04T06:28:24.178Z,17.19
2023-02-04T06:38:25.563Z,17.19
2023-02-04T06:48:26.993Z,17.23
2023-02-04T06:58:28.391Z,17.28
2023-02-04T07:08:29.768Z,17.39
2023-02-04T07:18:31.173Z,17.42
2023-02-04T07:28:32.584Z,17.45
2023-02-04T07:38:33.974Z,17.38
2023-02-04T07:48:35.368Z,17.41
2023-02-04T07:58:36.750Z,17.51
2023-02-04T08:08:38.309Z,17.59
2023-02-04T08:18:39.888Z,17.62
2023-02-04T08:28:41.292Z,17.68
2023-02-04T08:38:44.434Z,17.76
2023-02-04T08:48:45.989Z,17.78
2023-02-04T08:58:52.615Z,17.78
2023-02-04T09:08:54.016Z,17.88
2023-02-04T09:18:55.874Z,17.99
2023-02-04T09:28:57.282Z,18.00
2023-02-04T09:38:58.850Z,18.00
2023-02-04T09:49:00.564Z,17.98
2023-02-04T09:59:01.985Z,18.05
2023-02-04T10:09:03.417Z,18.08
2023-02-04T10:19:07.315Z,18.12
2023-02-04T10:29:14.370Z,18.22
2023-02-04T10:39:16.618Z,18.27
2023-02-04T10:49:22.702Z,18.35
2023-02-04T10:59:26.736Z,18.36
2023-02-04T11:09:28.178Z,18.41
2023-02-04T11:19:35.130Z,18.44
2023-02-04T11:29:41.147Z,18.40
2023-02-04T11:39:43.161Z,18.39
2023-02-04T11:49:44.997Z,18.43
2023-02-04T11:59:46.540Z,18.42
2023-02-04T12:09:49.418Z,18.47
2023-02-04T12:19:50.896Z,18.51
2023-02-04T12:29:52.420Z,18.49
2023-02-04T12:39:53.961Z,18.55
2023-02-04T12:49:55.378Z,18.56
2023-02-04T12:59:59.411Z,18.58
2023-02-04T13:10:00.808Z,18.62
2023-02-04T13:20:02.234Z,18.58
2023-02-04T13:30:05.292Z,18.53
2023-02-04T13:40:07.884Z,18.48
2023-02-04T13:50:09.608Z,18.44
2023-02-04T14:00:12.999Z,18.39
2023-02-04T14:10:14.594Z,18.31
2023-02-04T14:20:16.350Z,18.22
2023-02-04T14:30:19.728Z,18.15
2023-02-04T14:40:21.339Z,18.05
2023-02-04T14:50:26.882Z,17.96
2023-02-04T15:00:28.410Z,17.86
2023-02-04T15:10:29.922Z,17.79
2023-02-04T15:20:32.058Z,17.70
2023-02-04T15:30:34.199Z,17.61
2023-02-04T15:40:35.860Z,17.54
2023-02-04T15:50:39.689Z,17.44
2023-02-04T16:00:41.520Z,17.35
2023-02-04T16:10:43.056Z,17.28
2023-02-04T16:20:44.486Z,17.19
2023-02-04T16:30:45.919Z,17.10
2023-02-04T16:40:47.410Z,17.03
2023-02-04T16:50:48.786Z,16.95
2023-02-04T17:00:50.205Z,16.91
2023-02-04T17:11:10.168Z,16.83
2023-02-04T17:21:11.567Z,16.84
2023-02-04T17:31:13.266Z,16.81
2023-02-04T17:41:14.959Z,16.78
2023-02-04T17:51:16.709Z,16.76
2023-02-04T18:01:18.991Z,16.71
2023-02-04T18:11:27.444Z,16.70
2023-02-04T18:21:31.625Z,16.69
2023-02-04T18:31:53.406Z,16.70
2023-02-04T18:41:54.976Z,16.67
2023-02-04T18:51:57.655Z,16.65
2023-02-04T19:01:59.061Z,16.60
2023-02-04T19:12:00.913Z,16.58
2023-02-04T19:22:37.584Z,16.55
2023-02-04T19:32:45.127Z,16.50
2023-02-04T19:42:46.587Z,16.48
2023-02-04T19:52:49.510Z,16.45
2023-02-04T20:02:50.888Z,16.42
2023-02-04T20:12:55.598Z,16.39
2023-02-04T20:23:18.734Z,16.36
2023-02-04T20:33:40.155Z,16.31
2023-02-04T20:43:42.128Z,16.27
2023-02-04T20:53:43.386Z,16.26
2023-02-04T21:03:45.695Z,16.23
2023-02-04T21:13:47.422Z,16.18
2023-02-04T21:23:48.800Z,16.17
2023-02-04T21:33:50.331Z,16.16
2023-02-04T21:43:51.701Z,16.15
2023-02-04T21:53:53.077Z,16.15
2023-02-04T22:03:54.631Z,16.10
2023-02-04T22:13:56.098Z,16.11
2023-02-04T22:23:57.658Z,16.08
2023-02-04T22:33:59.205Z,16.07
2023-02-04T22:44:00.748Z,16.05
2023-02-04T22:54:02.300Z,16.02
2023-02-04T23:04:03.908Z,16.00
2023-02-04T23:14:05.458Z,15.98
2023-02-04T23:24:06.937Z,15.97
2023-02-04T23:34:08.448Z,15.96
2023-02-04T23:44:09.988Z,15.92
2023-02-04T23:54:12.044Z,15.90
